createdAt,value
2023-02-12T00:02:27.737Z,1.40
2023-02-12T00:05:16.633Z,1.41
2023-02-12T00:08:05.100Z,1.41
2023-02-12T00:10:53.149Z,1.41
2023-02-12T00:13:41.209Z,1.38
2023-02-12T00:16:30.000Z,1.38
2023-02-12T00:19:18.031Z,1.37
2023-02-12T00:22:06.093Z,1.35
2023-02-12T00:24:53.894Z,1.33
2023-02-12T00:27:41.779Z,1.31
2023-02-12T00:30:29.949Z,1.30
2023-02-12T00:33:18.251Z,1.26
2023-02-12T00:36:07.797Z,1.23
2023-02-12T00:38:57.316Z,1.22
2023-02-12T00:41:45.896Z,1.22
2023-02-12T00:44:34.272Z,1.19
2023-02-12T00:47:24.308Z,1.19
2023-02-12T00:50:12.530Z,1.16
2023-02-12T00:53:01.986Z,1.13
2023-02-12T00:55:50.194Z,1.10
2023-02-12T00:58:38.393Z,1.06
2023-02-12T01:01:28.225Z,1.02
2023-02-12T01:04:17.983Z,0.97
2023-02-12T01:07:05.748Z,0.92
2023-02-12T01:09:53.725Z,0.87
2023-02-12T01:12:41.449Z,0.80
2023-02-12T01:15:29.610Z,0.73
2023-02-12T01:18:18.185Z,0.64
2023-02-12T01:21:19.245Z,0.55
2023-02-12T01:24:07.210Z,0.46
2023-02-12T01:26:55.052Z,0.40
2023-02-12T01:29:45.944Z,0.33
2023-02-12T01:32:35.598Z,0.25
2023-02-12T01:35:23.502Z,0.16
2023-02-12T01:38:11.368Z,0.06
2023-02-12T01:41:19.360Z,-0.05
2023-02-12T01:44:18.530Z,-0.14
2023-02-12T01:47:07.189Z,-0.22
2023-02-12T01:49:55.227Z,-0.30
2023-02-12T01:52:50.184Z,-0.37
2023-02-12T01:55:39.720Z,-0.44
2023-02-12T01:58:32.369Z,-0.48
2023-02-12T02:01:25.243Z,-0.56
2023-02-12T02:04:20.172Z,-0.67
2023-02-12T02:07:10.024Z,-0.79
2023-02-12T02:09:59.417Z,-0.88
2023-02-12T02:13:08.305Z,-0.94
2023-02-12T02:16:04.376Z,-1.01
2023-02-12T02:19:35.192Z,-1.06
2023-02-12T02:22:56.135Z,-1.10
2023-02-12T02:26:13.998Z,-1.14
2023-02-12T02:29:44.144Z,-1.21
2023-02-12T02:32:42.506Z,-1.29
2023-02-12T02:35:59.665Z,-1.37
2023-02-12T02:39:42.067Z,-1.45
2023-02-12T02:42:37.200Z,-1.54
2023-02-12T02:45:43.430Z,-1.63
2023-02-12T02:48:52.234Z,-1.64
2023-02-12T02:51:48.004Z,-1.70
2023-02-12T02:54:44.519Z,-1.70
2023-02-12T02:57:51.955Z,-1.70
2023-02-12T03:00:49.045Z,-1.73
2023-02-12T03:03:49.040Z,-1.78
2023-02-12T03:07:05.865Z,-1.83
2023-02-12T03:10:06.689Z,-1.88
2023-02-12T03:13:08.855Z,-1.93
2023-02-12T03:16:18.489Z,-1.96
2023-02-12T03:19:18.339Z,-1.97
2023-02-12T03:22:30.902Z,-1.98
2023-02-12T03:25:35.416Z,-1.96
2023-02-12T03:28:30.777Z,-1.94
2023-02-12T03:32:09.113Z,-1.92
2023-02-12T03:35:32.040Z,-1.90
2023-02-12T03:38:57.159Z,-1.92
2023-02-12T03:41:59.819Z,-1.94
2023-02-12T03:45:02.155Z,-1.99
2023-02-12T03:48:07.474Z,-2.04
2023-02-12T03:51:03.674Z,-2.13
2023-02-12T03:53:52.231Z,-2.10
2023-02-12T03:57:01.911Z,-2.14
2023-02-12T03:59:51.462Z,-2.18
2023-02-12T04:02:41.192Z,-2.18
2023-02-12T04:05:29.239Z,-2.19
2023-02-12T04:08:17.492Z,-2.21
2023-02-12T04:11:22.756Z,-2.17
2023-02-12T04:14:28.840Z,-2.19
2023-02-12T04:17:59.555Z,-2.21
2023-02-12T04:20:53.996Z,-2.20
2023-02-12T04:23:50.495Z,-2.20
2023-02-12T04:26:41.092Z,-2.21
2023-02-12T04:29:39.527Z,-2.19
2023-02-12T04:32:35.451Z,-2.17
2023-02-12T04:35:38.023Z,-2.15
2023-02-12T04:38:36.154Z,-2.13
2023-02-12T04:41:26.511Z,-2.15
2023-02-12T04:44:23.581Z,-2.15
2023-02-12T04:47:17.187Z,-2.19
2023-02-12T04:50:06.250Z,-2.23
2023-02-12T04:52:54.434Z,-2.25
2023-02-12T04:55:42.928Z,-2.28
2023-02-12T04:58:30.764Z,-2.29
2023-02-12T05:01:18.814Z,-2.30
2023-02-12T05:04:08.240Z,-2.28
2023-02-12T05:06:56.390Z,-2.26
2023-02-12T05:09:44.300Z,-2.25
2023-02-12T05:12:32.438Z,-2.25
2023-02-12T05:15:20.811Z,-2.26
2023-02-12T05:18:08.693Z,-2.28
2023-02-12T05:21:02.692Z,-2.31
2023-02-12T05:23:50.626Z,-2.34
2023-02-12T05:26:38.507Z,-2.37
2023-02-12T05:29:26.325Z,-2.38
2023-02-12T05:32:14.657Z,-2.42
2023-02-12T05:35:02.780Z,-2.36
2023-02-12T05:37:50.877Z,-2.34
2023-02-12T05:40:40.450Z,-2.30
2023-02-12T05:43:28.392Z,-2.26
2023-02-12T05:46:21.237Z,-2.22
2023-02-12T05:49:10.814Z,-2.20
2023-02-12T05:51:58.595Z,-2.18
2023-02-12T05:54:50.852Z,-2.18
2023-02-12T05:57:38.551Z,-2.18
2023-02-12T06:00:26.550Z,-2.18
2023-02-12T06:03:14.850Z,-2.18
2023-02-12T06:06:02.758Z,-2.18
2023-02-12T06:08:50.976Z,-2.16
2023-02-12T06:11:39.511Z,-2.16
2023-02-12T06:14:28.711Z,-2.08
2023-02-12T06:17:17.889Z,-2.00
2023-02-12T06:20:07.389Z,-1.94
2023-02-12T06:22:55.285Z,-1.84
2023-02-12T06:25:43.190Z,-1.77
2023-02-12T06:28:31.906Z,-1.70
2023-02-12T06:31:28.488Z,-1.63
2023-02-12T06:34:18.445Z,-1.60
2023-02-12T06:37:06.658Z,-1.49
2023-02-12T06:39:54.428Z,-1.41
2023-02-12T06:42:42.318Z,-1.34
2023-02-12T06:45:30.272Z,-1.25
2023-02-12T06:48:18.170Z,-1.15
2023-02-12T06:51:15.796Z,-1.06
2023-02-12T06:54:03.558Z,-0.95
2023-02-12T06:56:51.704Z,-0.86
2023-02-12T06:59:39.945Z,-0.77
2023-02-12T07:02:28.018Z,-0.63
2023-02-12T07:05:15.791Z,-0.49
2023-02-12T07:08:04.011Z,-0.35
2023-02-12T07:10:51.924Z,-0.21
2023-02-12T07:13:42.641Z,-0.08
2023-02-12T07:16:30.889Z,0.04
2023-02-12T07:19:18.793Z,0.14
2023-02-12T07:22:06.497Z,0.21
2023-02-12T07:24:54.161Z,0.23
2023-02-12T07:27:42.342Z,0.27
2023-02-12T07:30:30.601Z,0.29
2023-02-12T07:33:19.870Z,0.38
2023-02-12T07:36:12.945Z,0.42
2023-02-12T07:39:01.819Z,0.53
2023-02-12T07:41:50.050Z,0.51
2023-02-12T07:44:37.764Z,0.55
2023-02-12T07:47:25.801Z,0.56
2023-02-12T07:50:14.111Z,0.77
2023-02-12T07:53:02.173Z,1.13
2023-02-12T07:55:49.811Z,1.52
2023-02-12T07:58:39.648Z,1.99
2023-02-12T08:01:35.008Z,2.24
2023-02-12T08:04:25.588Z,2.44
2023-02-12T08:07:13.930Z,2.64
2023-02-12T08:10:02.224Z,2.71
2023-02-12T08:12:50.116Z,2.84
2023-02-12T08:15:38.053Z,2.97
2023-02-12T08:18:26.073Z,3.16
2023-02-12T08:21:24.231Z,3.57
2023-02-12T08:24:12.702Z,3.95
2023-02-12T08:27:00.703Z,4.33
2023-02-12T08:29:48.739Z,4.61
2023-02-12T08:32:36.849Z,4.83
2023-02-12T08:35:24.734Z,4.82
2023-02-12T08:38:12.827Z,4.59
2023-02-12T08:41:07.331Z,4.30
2023-02-12T08:44:01.618Z,4.08
2023-02-12T08:46:52.986Z,3.69
2023-02-12T08:49:41.171Z,3.59
2023-02-12T08:52:29.352Z,3.47
2023-02-12T08:55:17.481Z,3.53
2023-02-12T08:58:05.528Z,3.65
2023-02-12T09:00:53.396Z,3.87
2023-02-12T09:03:41.353Z,4.14
2023-02-12T09:06:29.380Z,4.39
2023-02-12T09:09:17.906Z,4.59
2023-02-12T09:12:06.038Z,4.69
2023-02-12T09:14:54.214Z,4.72
2023-02-12T09:17:43.778Z,4.87
2023-02-12T09:20:33.041Z,4.87
2023-02-12T09:23:21.326Z,5.02
2023-02-12T09:26:13.175Z,5.23
2023-02-12T09:29:02.938Z,5.59
2023-02-12T09:31:50.732Z,5.98
2023-02-12T09:34:38.437Z,6.33
2023-02-12T09:37:26.630Z,6.40
2023-02-12T09:40:46.530Z,6.28
2023-02-12T09:44:06.829Z,6.08
2023-02-12T09:47:07.192Z,5.71
2023-02-12T09:50:23.373Z,5.36
2023-02-12T09:53:17.938Z,5.25
2023-02-12T09:56:18.504Z,5.24
2023-02-12T09:59:09.281Z,5.15
2023-02-12T10:01:59.027Z,5.04
2023-02-12T10:05:00.736Z,5.06
2023-02-12T10:08:08.741Z,5.18
2023-02-12T10:11:54.084Z,5.47
2023-02-12T10:14:50.988Z,5.87
2023-02-12T10:18:17.037Z,6.20
2023-02-12T10:21:41.761Z,6.48
2023-02-12T10:25:16.854Z,6.53
2023-02-12T10:28:26.815Z,6.58
2023-02-12T10:31:36.048Z,6.75
2023-02-12T10:34:41.499Z,6.84
2023-02-12T10:37:40.829Z,7.13
2023-02-12T10:40:34.123Z,7.48
2023-02-12T10:43:21.900Z,7.72
2023-02-12T10:46:17.232Z,7.80
2023-02-12T10:49:08.507Z,7.94
2023-02-12T10:52:30.324Z,8.14
2023-02-12T10:55:37.026Z,8.38
2023-02-12T10:58:25.147Z,8.98
2023-02-12T11:01:33.384Z,9.73
2023-02-12T11:04:31.229Z,10.64
2023-02-12T11:07:19.222Z,11.01
2023-02-12T11:10:21.605Z,11.50
2023-02-12T11:13:28.734Z,11.81
2023-02-12T11:16:38.329Z,12.27
2023-02-12T11:19:30.284Z,12.19
2023-02-12T11:22:21.238Z,11.90
2023-02-12T11:25:17.031Z,12.01
2023-02-12T11:28:12.696Z,11.70
2023-02-12T11:31:22.703Z,11.43
2023-02-12T11:34:19.845Z,11.51
2023-02-12T11:37:23.746Z,11.83
2023-02-12T11:40:27.186Z,11.93
2023-02-12T11:43:19.487Z,12.03
2023-02-12T11:46:08.839Z,12.00
2023-02-12T11:48:58.267Z,11.90
2023-02-12T11:51:48.063Z,11.78
2023-02-12T11:54:49.529Z,11.70
2023-02-12T11:57:40.759Z,11.15
2023-02-12T12:00:45.226Z,10.41
2023-02-12T12:04:09.304Z,9.40
2023-02-12T12:07:02.862Z,8.78
2023-02-12T12:10:24.422Z,8.33
2023-02-12T12:13:25.061Z,7.61
2023-02-12T12:16:44.630Z,6.96
2023-02-12T12:19:54.928Z,6.29
2023-02-12T12:23:20.678Z,5.79
2023-02-12T12:26:24.263Z,5.46
2023-02-12T12:29:47.738Z,5.12
2023-02-12T12:32:40.993Z,4.77
2023-02-12T12:35:45.848Z,4.53
2023-02-12T12:39:07.236Z,4.48
2023-02-12T12:42:31.468Z,4.50
2023-02-12T12:45:56.021Z,4.48
2023-02-12T12:49:32.134Z,4.41
2023-02-12T12:52:49.367Z,4.26
2023-02-12T12:55:52.985Z,4.19
2023-02-12T12:59:13.253Z,4.11
2023-02-12T13:02:13.037Z,3.99
2023-02-12T13:05:24.206Z,3.92
2023-02-12T13:08:28.844Z,3.88
2023-02-12T13:11:47.275Z,3.85
2023-02-12T13:14:38.299Z,3.80
2023-02-12T13:17:41.212Z,3.73
2023-02-12T13:20:52.440Z,3.69
2023-02-12T13:23:54.777Z,3.68
2023-02-12T13:26:56.376Z,3.64
2023-02-12T13:30:01.358Z,3.59
2023-02-12T13:33:00.735Z,3.56
2023-02-12T13:35:53.961Z,3.55
2023-02-12T13:38:54.805Z,3.50
2023-02-12T13:42:00.879Z,3.43
2023-02-12T13:45:01.216Z,3.39
2023-02-12T13:48:19.596Z,3.33
2023-02-12T13:51:30.460Z,3.28
2023-02-12T13:54:56.429Z,3.28
2023-02-12T13:57:44.553Z,3.27
2023-02-12T14:00:50.566Z,3.26
2023-02-12T14:03:39.559Z,3.23
2023-02-12T14:06:28.970Z,3.25
2023-02-12T14:09:24.120Z,3.25
2023-02-12T14:12:35.630Z,3.24
2023-02-12T14:15:32.712Z,3.22
2023-02-12T14:18:31.601Z,3.19
2023-02-12T14:21:35.953Z,3.18
2023-02-12T14:24:50.409Z,3.16
2023-02-12T14:27:47.408Z,3.16
2023-02-12T14:30:40.144Z,3.18
2023-02-12T14:33:28.442Z,3.22
2023-02-12T14:36:32.199Z,3.25
2023-02-12T14:39:20.170Z,3.29
2023-02-12T14:42:10.650Z,3.30
2023-02-12T14:44:59.018Z,3.33
2023-02-12T14:47:47.558Z,3.34
2023-02-12T14:50:52.191Z,3.38
2023-02-12T14:53:41.027Z,3.43
2023-02-12T14:56:29.004Z,3.45
2023-02-12T14:59:21.815Z,3.48
2023-02-12T15:02:26.862Z,3.51
2023-02-12T15:05:38.037Z,3.52
2023-02-12T15:08:32.927Z,3.53
2023-02-12T15:11:26.773Z,3.54
2023-02-12T15:14:26.380Z,3.55
2023-02-12T15:17:28.478Z,3.58
2023-02-12T15:20:39.976Z,3.57
2023-02-12T15:23:43.303Z,3.55
2023-02-12T15:26:36.941Z,3.58
2023-02-12T15:29:41.840Z,3.55
2023-02-12T15:32:30.748Z,3.55
2023-02-12T15:35:36.259Z,3.56
2023-02-12T15:38:41.545Z,3.56
2023-02-12T15:41:33.120Z,3.54
2023-02-12T15:44:33.454Z,3.53
2023-02-12T15:47:24.864Z,3.52
2023-02-12T15:50:18.158Z,3.52
2023-02-12T15:53:06.420Z,3.51
2023-02-12T15:55:56.112Z,3.52
2023-02-12T15:58:50.211Z,3.54
2023-02-12T16:01:39.018Z,3.54
2023-02-12T16:04:30.771Z,3.55
2023-02-12T16:07:20.013Z,3.56
2023-02-12T16:10:08.823Z,3.56
2023-02-12T16:12:57.395Z,3.58
2023-02-12T16:15:45.941Z,3.58
2023-02-12T16:18:34.426Z,3.61
2023-02-12T16:21:23.915Z,3.64
2023-02-12T16:24:31.369Z,3.67
2023-02-12T16:27:26.682Z,3.70
2023-02-12T16:30:28.737Z,3.74
2023-02-12T16:33:40.630Z,3.77
2023-02-12T16:36:32.421Z,3.80
2023-02-12T16:39:49.356Z,3.81
2023-02-12T16:42:37.176Z,3.83
2023-02-12T16:45:28.455Z,3.84
2023-02-12T16:48:26.190Z,3.87
2023-02-12T16:51:37.152Z,3.91
2023-02-12T16:54:35.579Z,3.92
2023-02-12T16:57:23.677Z,3.91
2023-02-12T17:00:17.573Z,3.92
2023-02-12T17:03:05.774Z,3.90
2023-02-12T17:05:54.722Z,3.91
2023-02-12T17:08:42.887Z,3.94
2023-02-12T17:11:31.138Z,3.96
2023-02-12T17:14:20.804Z,3.98
2023-02-12T17:17:08.807Z,3.99
2023-02-12T17:19:57.306Z,4.02
2023-02-12T17:22:53.344Z,4.04
2023-02-12T17:25:41.382Z,4.07
2023-02-12T17:28:29.827Z,4.09
2023-02-12T17:31:18.150Z,4.12
2023-02-12T17:34:06.389Z,4.14
2023-02-12T17:36:54.484Z,4.18
2023-02-12T17:39:42.497Z,4.20
2023-02-12T17:42:31.715Z,4.23
2023-02-12T17:45:19.754Z,4.27
2023-02-12T17:48:08.038Z,4.30
2023-02-12T17:50:59.295Z,4.32
2023-02-12T17:53:48.744Z,4.34
2023-02-12T17:56:36.802Z,4.36
2023-02-12T17:59:24.851Z,4.38
2023-02-12T18:02:12.948Z,4.42
2023-02-12T18:05:00.927Z,4.43
2023-02-12T18:07:49.162Z,4.45
2023-02-12T18:10:45.107Z,4.46
2023-02-12T18:13:33.535Z,4.48
2023-02-12T18:16:22.774Z,4.49
2023-02-12T18:19:10.914Z,4.51
2023-02-12T18:21:58.734Z,4.53
2023-02-12T18:24:47.049Z,4.56
2023-02-12T18:27:35.109Z,4.58
2023-02-12T18:30:23.128Z,4.59
2023-02-12T18:33:12.814Z,4.61
2023-02-12T18:36:06.350Z,4.64
2023-02-12T18:38:54.687Z,4.67
2023-02-12T18:41:43.532Z,4.70
2023-02-12T18:44:32.073Z,4.74
2023-02-12T18:47:19.887Z,4.78
2023-02-12T18:50:08.858Z,4.81
2023-02-12T18:52:56.774Z,4.85
2023-02-12T18:55:44.505Z,4.87
2023-02-12T18:58:32.675Z,4.88
2023-02-12T19:01:21.513Z,4.89
2023-02-12T19:04:12.825Z,4.89
2023-02-12T19:07:00.980Z,4.90
2023-02-12T19:09:48.804Z,4.92
2023-02-12T19:12:36.774Z,4.92
2023-02-12T19:15:25.213Z,4.92
2023-02-12T19:18:13.587Z,4.93
2023-02-12T19:21:07.508Z,4.94
2023-02-12T19:23:58.264Z,4.97
2023-02-12T19:26:46.823Z,4.99
2023-02-12T19:29:34.882Z,5.01
2023-02-12T19:32:25.103Z,5.03
2023-02-12T19:35:13.237Z,5.03
2023-02-12T19:38:03.107Z,5.01
2023-02-12T19:40:51.342Z,5.00
2023-02-12T19:43:39.939Z,5.01
2023-02-12T19:46:31.382Z,5.02
2023-02-12T19:49:24.942Z,5.01
2023-02-12T19:52:12.940Z,5.00
2023-02-12T19:55:01.008Z,4.97
2023-02-12T19:57:50.046Z,5.00
2023-02-12T20:00:37.938Z,5.00
2023-02-12T20:03:26.551Z,5.01
2023-02-12T20:06:22.878Z,5.00
2023-02-12T20:09:12.484Z,4.99
2023-02-12T20:12:01.012Z,4.98
2023-02-12T20:14:48.584Z,4.97
2023-02-12T20:17:36.330Z,4.95
2023-02-12T20:20:24.182Z,4.94
2023-02-12T20:23:12.524Z,4.93
2023-02-12T20:26:00.451Z,4.92
2023-02-12T20:28:50.154Z,4.90
2023-02-12T20:31:39.012Z,4.90
2023-02-12T20:34:26.827Z,4.92
2023-02-12T20:37:15.198Z,4.92
2023-02-12T20:40:05.133Z,4.91
2023-02-12T20:42:53.542Z,4.92
2023-02-12T20:45:41.485Z,4.92
2023-02-12T20:48:29.580Z,4.94
2023-02-12T20:51:21.877Z,4.95
2023-02-12T20:54:10.641Z,4.96
2023-02-12T20:56:58.685Z,4.97
2023-02-12T20:59:49.040Z,4.99
2023-02-12T21:02:37.085Z,4.99
2023-02-12T21:05:25.272Z,4.99
2023-02-12T21:08:13.129Z,4.99
2023-02-12T21:11:15.421Z,4.98
2023-02-12T21:14:20.752Z,4.99
2023-02-12T21:17:09.701Z,4.98
2023-02-12T21:19:57.533Z,5.00
2023-02-12T21:22:46.021Z,5.00
2023-02-12T21:25:34.030Z,4.99
2023-02-12T21:28:21.893Z,4.96
2023-02-12T21:31:17.270Z,4.96
2023-02-12T21:34:07.847Z,4.96
2023-02-12T21:36:56.806Z,4.98
2023-02-12T21:39:44.702Z,4.97
2023-02-12T21:42:32.625Z,5.00
2023-02-12T21:45:20.761Z,5.02
2023-02-12T21:48:09.265Z,5.04
2023-02-12T21:50:57.806Z,5.06
2023-02-12T21:53:51.611Z,5.08
2023-02-12T21:56:42.964Z,5.08
2023-02-12T21:59:32.375Z,5.08
2023-02-12T22:02:20.914Z,5.09
2023-02-12T22:05:09.330Z,5.09
2023-02-12T22:07:57.016Z,5.08
2023-02-12T22:10:45.332Z,5.06
2023-02-12T22:13:33.511Z,5.08
2023-02-12T22:16:28.520Z,5.08
2023-02-12T22:19:16.656Z,5.08
2023-02-12T22:22:04.533Z,5.08
2023-02-12T22:24:53.038Z,5.06
2023-02-12T22:27:40.731Z,5.06
2023-02-12T22:30:28.692Z,5.03
2023-02-12T22:33:16.722Z,4.99
2023-02-12T22:36:07.898Z,4.96
2023-02-12T22:38:59.258Z,4.90
2023-02-12T22:41:47.147Z,4.85
2023-02-12T22:44:36.366Z,4.76
2023-02-12T22:47:24.615Z,4.74
2023-02-12T22:50:12.674Z,4.67
2023-02-12T22:53:00.622Z,4.62
2023-02-12T22:55:48.550Z,4.58
2023-02-12T22:58:38.698Z,4.52
2023-02-12T23:01:28.062Z,4.50
2023-02-12T23:04:18.689Z,4.47
2023-02-12T23:07:06.458Z,4.44
2023-02-12T23:09:54.449Z,4.41
2023-02-12T23:12:42.431Z,4.37
2023-02-12T23:15:32.156Z,4.33
2023-02-12T23:18:20.753Z,4.30
2023-02-12T23:21:09.325Z,4.27
2023-02-12T23:23:59.253Z,4.24
2023-02-12T23:26:47.367Z,4.23
2023-02-12T23:29:35.989Z,4.20
2023-02-12T23:32:23.715Z,4.18
2023-02-12T23:35:11.651Z,4.15
2023-02-12T23:37:59.576Z,4.11
2023-02-12T23:40:48.546Z,4.09
2023-02-12T23:43:36.266Z,4.06
2023-02-12T23:46:24.270Z,4.03
2023-02-12T23:49:12.173Z,4.03
2023-02-12T23:52:00.143Z,4.00
2023-02-12T23:54:48.092Z,3.98
2023-02-12T23:57:36.646Z,3.96
